createdAt,value
2023-07-19T00:01:58.601Z,100.00
2023-07-19T00:04:26.063Z,100.00
2023-07-19T00:06:52.823Z,100.00
2023-07-19T00:09:19.542Z,100.00
2023-07-19T00:11:47.110Z,100.00
2023-07-19T00:14:13.757Z,100.00
2023-07-19T00:16:40.592Z,100.00
2023-07-19T00:19:19.433Z,100.00
2023-07-19T00:21:47.771Z,100.00
2023-07-19T00:24:14.506Z,100.00
2023-07-19T00:26:41.459Z,100.00
2023-07-19T00:29:09.014Z,100.00
2023-07-19T00:31:38.711Z,100.00
2023-07-19T00:34:06.870Z,100.00
2023-07-19T00:36:34.614Z,100.00
2023-07-19T00:39:01.174Z,100.00
2023-07-19T00:41:27.962Z,100.00
2023-07-19T00:43:54.734Z,100.00
2023-07-19T00:46:22.406Z,100.00
2023-07-19T00:48:49.255Z,100.00
2023-07-19T00:51:17.659Z,100.00
2023-07-19T00:53:48.573Z,100.00
2023-07-19T00:56:15.446Z,100.00
2023-07-19T00:58:42.696Z,100.00
2023-07-19T01:01:10.313Z,100.00
2023-07-19T01:03:38.046Z,100.00
2023-07-19T01:06:05.343Z,100.00
2023-07-19T01:08:32.314Z,100.00
2023-07-19T01:10:59.212Z,100.00
2023-07-19T01:13:25.802Z,100.00
2023-07-19T01:15:52.593Z,100.00
2023-07-19T01:18:20.096Z,100.00
2023-07-19T01:20:47.815Z,100.00
2023-07-19T01:23:14.702Z,100.00
2023-07-19T01:25:41.394Z,100.00
2023-07-19T01:28:08.742Z,100.00
2023-07-19T01:30:36.331Z,100.00
2023-07-19T01:33:04.101Z,100.00
2023-07-19T01:35:30.895Z,100.00
2023-07-19T01:37:58.780Z,100.00
2023-07-19T01:40:25.457Z,100.00
2023-07-19T01:42:52.481Z,100.00
2023-07-19T01:45:19.600Z,100.00
2023-07-19T01:47:46.222Z,100.00
2023-07-19T01:50:12.859Z,100.00
2023-07-19T01:52:41.179Z,100.00
2023-07-19T01:55:08.399Z,100.00
2023-07-19T01:57:35.263Z,100.00
2023-07-19T02:00:02.751Z,100.00
2023-07-19T02:02:29.862Z,100.00
2023-07-19T02:04:57.376Z,100.00
2023-07-19T02:07:24.116Z,100.00
2023-07-19T02:09:51.176Z,100.00
2023-07-19T02:12:18.491Z,100.00
2023-07-19T02:14:45.257Z,100.00
2023-07-19T02:17:11.952Z,100.00
2023-07-19T02:19:39.319Z,100.00
2023-07-19T02:22:06.032Z,100.00
2023-07-19T02:24:32.686Z,100.00
2023-07-19T02:26:59.716Z,100.00
2023-07-19T02:29:26.362Z,100.00
2023-07-19T02:31:53.618Z,100.00
2023-07-19T02:34:21.608Z,100.00
2023-07-19T02:36:50.298Z,100.00
2023-07-19T02:39:21.250Z,100.00
2023-07-19T02:41:47.945Z,100.00
2023-07-19T02:44:14.726Z,100.00
2023-07-19T02:46:41.520Z,100.00
2023-07-19T02:49:08.275Z,100.00
2023-07-19T02:51:35.036Z,100.00
2023-07-19T02:54:01.699Z,100.00
2023-07-19T02:56:28.361Z,100.00
2023-07-19T02:58:55.067Z,100.00
2023-07-19T03:01:22.124Z,100.00
2023-07-19T03:03:50.478Z,100.00
2023-07-19T03:06:19.079Z,100.00
2023-07-19T03:08:45.871Z,100.00
2023-07-19T03:11:12.543Z,100.00
2023-07-19T03:13:39.225Z,100.00
2023-07-19T03:16:06.859Z,100.00
2023-07-19T03:18:33.892Z,100.00
2023-07-19T03:21:02.029Z,100.00
2023-07-19T03:23:31.752Z,100.00
2023-07-19T03:26:00.167Z,100.00
2023-07-19T03:28:29.449Z,100.00
2023-07-19T03:30:56.778Z,100.00
2023-07-19T03:33:24.646Z,100.00
2023-07-19T03:35:52.862Z,100.00
2023-07-19T03:38:20.206Z,100.00
2023-07-19T03:40:48.339Z,100.00
2023-07-19T03:43:15.324Z,100.00
2023-07-19T03:45:42.164Z,100.00
2023-07-19T03:48:11.398Z,100.00
2023-07-19T03:50:38.038Z,100.00
2023-07-19T03:53:05.802Z,100.00
2023-07-19T03:55:34.061Z,100.00
2023-07-19T03:58:02.574Z,100.00
2023-07-19T04:00:29.668Z,100.00
2023-07-19T04:02:57.326Z,100.00
2023-07-19T04:05:23.987Z,100.00
2023-07-19T04:07:51.667Z,100.00
2023-07-19T04:10:18.480Z,100.00
2023-07-19T04:12:46.158Z,100.00
2023-07-19T04:15:12.838Z,100.00
2023-07-19T04:17:39.491Z,100.00
2023-07-19T04:20:07.775Z,100.00
2023-07-19T04:22:34.581Z,100.00
2023-07-19T04:25:01.594Z,100.00
2023-07-19T04:27:28.240Z,100.00
2023-07-19T04:29:54.873Z,100.00
2023-07-19T04:32:22.349Z,100.00
2023-07-19T04:34:54.289Z,100.00
2023-07-19T04:37:21.708Z,100.00
2023-07-19T04:39:49.205Z,100.00
2023-07-19T04:42:15.911Z,100.00
2023-07-19T04:44:43.360Z,100.00
2023-07-19T04:47:11.074Z,100.00
2023-07-19T04:49:37.937Z,100.00
2023-07-19T04:52:05.041Z,100.00
2023-07-19T04:54:33.963Z,100.00
2023-07-19T04:57:02.206Z,100.00
2023-07-19T04:59:28.955Z,100.00
2023-07-19T05:01:55.834Z,100.00
2023-07-19T05:04:22.884Z,100.00
2023-07-19T05:06:51.080Z,100.00
2023-07-19T05:09:18.970Z,100.00
2023-07-19T05:11:45.876Z,100.00
2023-07-19T05:14:12.589Z,100.00
2023-07-19T05:16:39.264Z,100.00
2023-07-19T05:19:07.304Z,100.00
2023-07-19T05:21:34.778Z,100.00
2023-07-19T05:24:01.583Z,100.00
2023-07-19T05:26:28.301Z,100.00
2023-07-19T05:28:54.975Z,100.00
2023-07-19T05:31:22.137Z,100.00
2023-07-19T05:33:49.169Z,100.00
2023-07-19T05:36:15.887Z,100.00
2023-07-19T05:38:42.570Z,100.00
2023-07-19T05:41:09.349Z,100.00
2023-07-19T05:43:35.998Z,100.00
2023-07-19T05:46:07.337Z,100.00
2023-07-19T05:48:34.929Z,100.00
2023-07-19T05:51:03.456Z,100.00
2023-07-19T05:53:30.244Z,100.00
2023-07-19T05:55:57.798Z,100.00
2023-07-19T05:58:24.797Z,100.00
2023-07-19T06:00:51.572Z,100.00
2023-07-19T06:03:18.560Z,100.00
2023-07-19T06:05:45.847Z,100.00
2023-07-19T06:08:23.640Z,100.00
2023-07-19T06:10:52.457Z,100.00
2023-07-19T06:13:20.255Z,100.00
2023-07-19T06:15:47.056Z,100.00
2023-07-19T06:18:14.709Z,100.00
2023-07-19T06:20:41.387Z,100.00
2023-07-19T06:23:08.151Z,100.00
2023-07-19T06:25:34.836Z,100.00
2023-07-19T06:28:01.734Z,100.00
2023-07-19T06:30:28.651Z,100.00
2023-07-19T06:32:55.378Z,100.00
2023-07-19T06:35:22.135Z,100.00
2023-07-19T06:37:48.761Z,100.00
2023-07-19T06:40:16.396Z,100.00
2023-07-19T06:42:48.966Z,100.00
2023-07-19T06:45:15.616Z,100.00
2023-07-19T06:47:42.196Z,100.00
2023-07-19T06:50:09.543Z,100.00
2023-07-19T06:52:36.249Z,100.00
2023-07-19T06:55:03.036Z,100.00
2023-07-19T06:57:29.780Z,100.00
2023-07-19T06:59:56.391Z,100.00
2023-07-19T07:02:22.967Z,100.00
2023-07-19T07:04:51.473Z,100.00
2023-07-19T07:07:20.597Z,100.00
2023-07-19T07:09:47.543Z,100.00
2023-07-19T07:12:14.483Z,100.00
2023-07-19T07:14:41.285Z,100.00
2023-07-19T07:17:08.209Z,99.36
2023-07-19T07:19:35.364Z,97.38
2023-07-19T07:22:02.055Z,95.80
2023-07-19T07:24:28.594Z,90.58
2023-07-19T07:27:04.160Z,88.27
2023-07-19T07:29:30.736Z,80.07
2023-07-19T07:31:57.490Z,71.47
2023-07-19T07:34:25.382Z,75.10
2023-07-19T07:36:53.067Z,69.43
2023-07-19T07:39:20.299Z,67.58
2023-07-19T07:41:46.937Z,69.30
2023-07-19T07:44:13.508Z,70.10
2023-07-19T07:46:40.237Z,71.98
2023-07-19T07:49:10.593Z,69.67
2023-07-19T07:51:37.219Z,73.57
2023-07-19T07:54:03.887Z,70.15
2023-07-19T07:56:30.699Z,71.49
2023-07-19T07:58:57.317Z,71.25
2023-07-19T08:01:24.297Z,68.30
2023-07-19T08:03:51.228Z,65.39
2023-07-19T08:06:18.015Z,64.76
2023-07-19T08:08:44.608Z,65.54
2023-07-19T08:11:11.354Z,62.87
2023-07-19T08:13:37.937Z,60.83
2023-07-19T08:16:07.568Z,58.07
2023-07-19T08:18:35.471Z,56.25
2023-07-19T08:21:03.236Z,52.99
2023-07-19T08:23:30.004Z,51.54
2023-07-19T08:25:57.804Z,50.45
2023-07-19T08:28:27.778Z,50.42
2023-07-19T08:30:54.902Z,50.13
2023-07-19T08:33:25.737Z,50.66
2023-07-19T08:36:00.180Z,50.55
2023-07-19T08:38:26.856Z,48.41
2023-07-19T08:41:03.974Z,49.12
2023-07-19T08:43:33.496Z,48.09
2023-07-19T08:46:00.533Z,48.93
2023-07-19T08:48:27.538Z,49.66
2023-07-19T08:51:00.534Z,50.65
2023-07-19T08:53:27.642Z,50.60
2023-07-19T08:55:54.956Z,51.89
2023-07-19T08:58:21.886Z,50.93
2023-07-19T09:00:50.100Z,49.37
2023-07-19T09:03:17.955Z,49.13
2023-07-19T09:05:46.240Z,49.57
2023-07-19T09:08:13.965Z,49.48
2023-07-19T09:10:43.656Z,48.15
2023-07-19T09:13:10.522Z,47.57
2023-07-19T09:15:37.282Z,48.54
2023-07-19T09:18:08.238Z,49.22
2023-07-19T09:20:38.563Z,49.71
2023-07-19T09:23:07.067Z,51.09
2023-07-19T09:25:50.586Z,50.84
2023-07-19T09:28:20.713Z,50.96
2023-07-19T09:31:11.614Z,50.38
2023-07-19T09:33:46.418Z,49.51
2023-07-19T09:36:18.201Z,47.34
2023-07-19T09:38:45.368Z,46.37
2023-07-19T09:41:12.782Z,47.05
2023-07-19T09:43:40.848Z,48.60
2023-07-19T09:46:08.161Z,48.83
2023-07-19T09:48:35.278Z,48.38
2023-07-19T09:51:04.387Z,47.53
2023-07-19T09:53:33.802Z,48.32
2023-07-19T09:56:01.057Z,48.63
2023-07-19T09:58:29.439Z,48.63
2023-07-19T10:00:57.002Z,48.76
2023-07-19T10:03:25.792Z,48.66
2023-07-19T10:05:59.306Z,50.93
2023-07-19T10:08:26.002Z,52.99
2023-07-19T10:11:01.546Z,53.59
2023-07-19T10:13:32.807Z,54.58
2023-07-19T10:15:59.818Z,55.44
2023-07-19T10:18:28.376Z,57.24
2023-07-19T10:21:03.504Z,55.39
2023-07-19T10:23:32.046Z,53.08
2023-07-19T10:26:06.273Z,54.51
2023-07-19T10:28:33.113Z,51.26
2023-07-19T10:31:17.169Z,52.10
2023-07-19T10:33:48.517Z,52.86
2023-07-19T10:36:15.550Z,50.47
2023-07-19T10:38:42.290Z,47.82
2023-07-19T10:41:10.525Z,46.09
2023-07-19T10:46:09.628Z,45.62
2023-07-19T10:48:40.358Z,47.01
2023-07-19T10:51:11.719Z,47.96
2023-07-19T10:53:51.750Z,49.70
2023-07-19T10:56:20.448Z,49.14
2023-07-19T10:58:48.202Z,47.86
2023-07-19T11:01:16.202Z,46.21
2023-07-19T11:03:46.332Z,44.02
2023-07-19T11:06:13.852Z,42.47
2023-07-19T11:08:40.729Z,42.79
2023-07-19T11:11:08.516Z,43.98
2023-07-19T11:13:35.665Z,43.02
2023-07-19T11:16:02.504Z,42.97
2023-07-19T11:18:40.273Z,40.69
2023-07-19T11:21:08.185Z,40.18
2023-07-19T11:23:42.421Z,40.05
2023-07-19T11:26:15.067Z,40.37
2023-07-19T11:28:59.692Z,41.87
2023-07-19T11:31:37.032Z,42.28
2023-07-19T11:34:15.592Z,44.06
2023-07-19T11:36:44.076Z,42.38
2023-07-19T11:39:18.656Z,40.67
2023-07-19T11:41:46.881Z,41.04
2023-07-19T11:44:18.084Z,42.52
2023-07-19T11:46:45.287Z,43.29
2023-07-19T11:49:12.194Z,44.01
2023-07-19T11:51:39.368Z,42.89
2023-07-19T11:54:06.651Z,42.40
2023-07-19T11:56:33.535Z,41.05
2023-07-19T11:59:00.243Z,40.87
2023-07-19T12:01:27.744Z,39.69
2023-07-19T12:03:55.017Z,39.48
2023-07-19T12:06:21.822Z,38.66
2023-07-19T12:08:48.557Z,38.70
2023-07-19T12:11:15.238Z,40.13
2023-07-19T12:13:41.829Z,39.85
2023-07-19T12:16:08.382Z,40.89
2023-07-19T12:18:34.982Z,41.58
2023-07-19T12:21:01.700Z,38.38
2023-07-19T12:25:58.056Z,37.98
2023-07-19T12:28:24.658Z,38.00
2023-07-19T12:30:51.511Z,36.63
2023-07-19T12:33:18.640Z,37.04
2023-07-19T12:35:48.396Z,39.18
2023-07-19T12:38:15.758Z,39.99
2023-07-19T12:40:42.717Z,43.14
2023-07-19T12:43:09.370Z,45.33
2023-07-19T12:45:35.994Z,47.27
2023-07-19T12:48:03.921Z,49.11
2023-07-19T12:50:30.669Z,50.65
2023-07-19T12:52:57.279Z,52.83
2023-07-19T12:55:23.826Z,53.96
2023-07-19T12:57:50.466Z,56.56
2023-07-19T13:00:18.438Z,59.83
2023-07-19T13:02:45.988Z,61.66
2023-07-19T13:05:13.233Z,64.39
2023-07-19T13:07:39.878Z,64.46
2023-07-19T13:10:07.064Z,60.84
2023-07-19T13:12:33.689Z,57.34
2023-07-19T13:15:01.370Z,55.91
2023-07-19T13:17:28.038Z,58.57
2023-07-19T13:19:54.780Z,58.46
2023-07-19T13:22:21.290Z,59.50
2023-07-19T13:24:47.877Z,57.09
2023-07-19T13:27:14.430Z,51.38
2023-07-19T13:29:41.049Z,52.67
2023-07-19T13:32:08.175Z,50.58
2023-07-19T13:34:35.525Z,49.87
2023-07-19T13:37:06.494Z,49.19
2023-07-19T13:39:35.092Z,47.01
2023-07-19T13:42:02.265Z,44.75
2023-07-19T13:44:30.581Z,46.57
2023-07-19T13:46:57.533Z,48.61
2023-07-19T13:49:24.662Z,49.12
2023-07-19T13:51:51.489Z,46.64
2023-07-19T13:54:18.095Z,45.57
2023-07-19T13:56:44.692Z,46.33
2023-07-19T13:59:11.504Z,47.60
2023-07-19T14:01:38.203Z,50.77
2023-07-19T14:04:05.240Z,52.09
2023-07-19T14:06:32.095Z,54.24
2023-07-19T14:08:58.851Z,53.74
2023-07-19T14:11:25.699Z,53.89
2023-07-19T14:16:22.370Z,55.72
2023-07-19T14:18:49.358Z,54.70
2023-07-19T14:21:15.977Z,55.06
2023-07-19T14:23:42.671Z,57.73
2023-07-19T14:26:09.369Z,56.21
2023-07-19T14:28:36.058Z,52.33
2023-07-19T14:31:03.598Z,49.30
2023-07-19T14:33:30.833Z,46.36
2023-07-19T14:35:57.629Z,45.06
2023-07-19T14:38:28.741Z,46.87
2023-07-19T14:40:57.301Z,46.31
2023-07-19T14:43:24.762Z,45.14
2023-07-19T14:45:54.872Z,42.99
2023-07-19T14:48:24.541Z,43.23
2023-07-19T14:50:56.149Z,45.63
2023-07-19T14:53:23.437Z,47.42
2023-07-19T14:55:52.708Z,47.04
2023-07-19T14:58:20.405Z,48.26
2023-07-19T15:00:50.771Z,50.02
2023-07-19T15:05:49.607Z,52.11
2023-07-19T15:08:16.632Z,51.67
2023-07-19T15:10:43.339Z,51.69
2023-07-19T15:13:11.725Z,51.85
2023-07-19T15:15:44.687Z,51.37
2023-07-19T15:18:13.751Z,53.56
2023-07-19T15:20:42.571Z,56.95
2023-07-19T15:23:10.696Z,59.71
2023-07-19T15:25:37.521Z,63.02
2023-07-19T15:28:14.638Z,66.77
2023-07-19T15:30:52.167Z,71.03
2023-07-19T15:33:18.781Z,73.71
2023-07-19T15:35:45.448Z,78.63
2023-07-19T15:38:20.295Z,83.49
2023-07-19T15:40:47.037Z,86.10
2023-07-19T15:43:13.730Z,77.47
2023-07-19T15:45:40.404Z,76.38
2023-07-19T15:48:07.345Z,76.83
2023-07-19T15:50:37.484Z,78.26
2023-07-19T15:53:04.220Z,72.85
2023-07-19T15:55:30.876Z,69.32
2023-07-19T15:57:57.498Z,67.80
2023-07-19T16:00:24.031Z,68.38
2023-07-19T16:02:50.728Z,65.14
2023-07-19T16:05:17.395Z,68.95
2023-07-19T16:07:43.994Z,70.52
2023-07-19T16:10:10.797Z,70.68
2023-07-19T16:12:37.380Z,72.29
2023-07-19T16:15:04.342Z,71.03
2023-07-19T16:17:30.993Z,70.63
2023-07-19T16:19:57.644Z,70.12
2023-07-19T16:22:24.300Z,68.58
2023-07-19T16:24:51.325Z,69.62
2023-07-19T16:27:17.963Z,69.88
2023-07-19T16:29:44.813Z,71.37
2023-07-19T16:32:11.371Z,73.22
2023-07-19T16:34:38.049Z,75.23
2023-07-19T16:37:07.227Z,79.20
2023-07-19T16:39:34.350Z,79.93
2023-07-19T16:42:02.183Z,80.67
2023-07-19T16:44:29.844Z,82.01
2023-07-19T16:46:56.511Z,83.49
2023-07-19T16:49:25.256Z,82.79
2023-07-19T16:51:52.317Z,84.55
2023-07-19T16:54:19.074Z,85.61
2023-07-19T16:56:45.744Z,84.55
2023-07-19T16:59:12.439Z,85.76
2023-07-19T17:01:39.244Z,88.61
2023-07-19T17:04:05.994Z,90.29
2023-07-19T17:06:32.755Z,92.86
2023-07-19T17:08:59.438Z,94.67
2023-07-19T17:11:26.081Z,95.04
2023-07-19T17:13:54.127Z,97.41
2023-07-19T17:16:20.879Z,99.35
2023-07-19T17:18:47.641Z,100.00
2023-07-19T17:21:16.738Z,100.00
2023-07-19T17:23:43.465Z,100.00
2023-07-19T17:26:10.338Z,100.00
2023-07-19T17:28:37.244Z,100.00
2023-07-19T17:31:03.961Z,100.00
2023-07-19T17:33:30.848Z,100.00
2023-07-19T17:35:57.610Z,100.00
2023-07-19T17:38:27.058Z,100.00
2023-07-19T17:40:54.855Z,100.00
2023-07-19T17:43:21.489Z,100.00
2023-07-19T17:45:48.273Z,100.00
2023-07-19T17:48:15.031Z,100.00
2023-07-19T17:50:41.774Z,100.00
2023-07-19T17:53:08.583Z,100.00
2023-07-19T17:55:35.207Z,100.00
2023-07-19T17:58:01.853Z,100.00
2023-07-19T18:00:28.503Z,100.00
2023-07-19T18:02:55.301Z,100.00
2023-07-19T18:05:22.110Z,100.00
2023-07-19T18:07:48.777Z,100.00
2023-07-19T18:10:15.476Z,100.00
2023-07-19T18:12:42.159Z,100.00
2023-07-19T18:15:09.509Z,100.00
2023-07-19T18:17:37.287Z,100.00
2023-07-19T18:20:04.695Z,100.00
2023-07-19T18:22:31.433Z,100.00
2023-07-19T18:24:58.430Z,100.00
2023-07-19T18:27:25.137Z,100.00
2023-07-19T18:29:51.769Z,100.00
2023-07-19T18:32:19.543Z,100.00
2023-07-19T18:34:47.003Z,100.00
2023-07-19T18:37:13.643Z,100.00
2023-07-19T18:39:41.212Z,100.00
2023-07-19T18:42:08.058Z,100.00
2023-07-19T18:44:37.791Z,100.00
2023-07-19T18:47:04.946Z,100.00
2023-07-19T18:49:31.841Z,100.00
2023-07-19T18:51:58.820Z,100.00
2023-07-19T18:54:25.633Z,100.00
2023-07-19T18:56:52.371Z,100.00
2023-07-19T18:59:20.685Z,100.00
2023-07-19T19:01:47.599Z,100.00
2023-07-19T19:04:14.365Z,100.00
2023-07-19T19:06:41.160Z,100.00
2023-07-19T19:09:08.163Z,100.00
2023-07-19T19:11:35.227Z,100.00
2023-07-19T19:14:01.938Z,100.00
2023-07-19T19:16:29.534Z,100.00
2023-07-19T19:18:56.292Z,100.00
2023-07-19T19:21:23.926Z,100.00
2023-07-19T19:23:51.023Z,100.00
2023-07-19T19:26:17.695Z,100.00
2023-07-19T19:28:45.626Z,100.00
2023-07-19T19:31:13.591Z,100.00
2023-07-19T19:33:40.761Z,100.00
2023-07-19T19:36:08.123Z,100.00
2023-07-19T19:38:34.862Z,100.00
2023-07-19T19:41:01.560Z,100.00
2023-07-19T19:43:28.279Z,100.00
2023-07-19T19:45:55.094Z,100.00
2023-07-19T19:48:21.877Z,100.00
2023-07-19T19:50:49.478Z,100.00
2023-07-19T19:53:16.384Z,100.00
2023-07-19T19:58:12.567Z,100.00
2023-07-19T20:00:39.374Z,100.00
2023-07-19T20:08:05.454Z,100.00
2023-07-19T20:10:32.167Z,100.00
2023-07-19T20:12:59.657Z,100.00
2023-07-19T20:15:27.331Z,100.00
2023-07-19T20:17:54.222Z,100.00
2023-07-19T20:20:27.135Z,100.00
2023-07-19T20:25:46.552Z,100.00
2023-07-19T20:28:10.893Z,100.00
2023-07-19T20:33:07.440Z,100.00
2023-07-19T20:43:04.764Z,100.00
2023-07-19T20:45:33.095Z,100.00
2023-07-19T20:48:01.685Z,100.00
2023-07-19T20:50:29.046Z,100.00
2023-07-19T20:52:55.725Z,100.00
2023-07-19T20:55:23.375Z,100.00
2023-07-19T20:57:50.060Z,100.00
2023-07-19T21:00:18.573Z,100.00
2023-07-19T21:02:45.324Z,100.00
2023-07-19T21:05:13.035Z,100.00
2023-07-19T21:07:39.698Z,100.00
2023-07-19T21:10:06.913Z,100.00
2023-07-19T21:12:33.533Z,100.00
2023-07-19T21:15:00.245Z,100.00
2023-07-19T21:17:26.936Z,100.00
2023-07-19T21:19:53.730Z,100.00
2023-07-19T21:22:20.474Z,100.00
2023-07-19T21:25:14.532Z,100.00
2023-07-19T21:27:33.982Z,100.00
2023-07-19T21:30:00.747Z,100.00
2023-07-19T21:32:27.636Z,100.00
2023-07-19T21:34:54.584Z,100.00
2023-07-19T21:37:21.888Z,100.00
2023-07-19T21:39:48.879Z,100.00
2023-07-19T21:42:15.589Z,100.00
2023-07-19T21:44:43.314Z,100.00
2023-07-19T21:47:10.146Z,100.00
2023-07-19T21:49:39.630Z,100.00
2023-07-19T21:52:07.038Z,100.00
2023-07-19T21:54:33.839Z,100.00
2023-07-19T21:57:00.601Z,100.00
2023-07-19T21:59:27.347Z,100.00
2023-07-19T22:01:54.085Z,100.00
2023-07-19T22:04:20.870Z,100.00
2023-07-19T22:06:47.507Z,100.00
2023-07-19T22:09:14.948Z,100.00
2023-07-19T22:11:42.390Z,100.00
2023-07-19T22:14:10.283Z,100.00
2023-07-19T22:16:38.370Z,100.00
2023-07-19T22:19:05.177Z,100.00
2023-07-19T22:21:34.724Z,100.00
2023-07-19T22:24:01.500Z,100.00
2023-07-19T22:26:28.118Z,100.00
2023-07-19T22:29:02.527Z,100.00
2023-07-19T22:31:29.539Z,100.00
2023-07-19T22:33:56.402Z,100.00
2023-07-19T22:36:23.523Z,100.00
2023-07-19T22:38:50.385Z,100.00
2023-07-19T22:41:17.079Z,100.00
2023-07-19T22:43:43.699Z,100.00
2023-07-19T22:46:10.406Z,100.00
2023-07-19T22:48:37.323Z,100.00
2023-07-19T22:51:04.380Z,100.00
2023-07-19T22:53:33.616Z,100.00
2023-07-19T22:56:02.496Z,100.00
2023-07-19T22:58:30.504Z,100.00
2023-07-19T23:00:58.806Z,100.00
2023-07-19T23:03:26.381Z,100.00
2023-07-19T23:05:53.870Z,100.00
2023-07-19T23:08:20.762Z,100.00
2023-07-19T23:10:47.960Z,100.00
2023-07-19T23:13:14.621Z,100.00
2023-07-19T23:15:41.271Z,100.00
2023-07-19T23:18:08.154Z,100.00
2023-07-19T23:20:35.411Z,100.00
2023-07-19T23:23:02.169Z,100.00
2023-07-19T23:25:30.043Z,100.00
2023-07-19T23:28:00.935Z,100.00
2023-07-19T23:30:28.847Z,100.00
2023-07-19T23:32:58.641Z,100.00
2023-07-19T23:35:25.569Z,100.00
2023-07-19T23:37:53.377Z,100.00
2023-07-19T23:40:20.220Z,100.00
2023-07-19T23:42:47.029Z,100.00
2023-07-19T23:45:13.694Z,100.00
2023-07-19T23:47:40.353Z,100.00
2023-07-19T23:50:07.727Z,100.00
2023-07-19T23:52:34.900Z,100.00
2023-07-19T23:55:02.559Z,100.00
2023-07-19T23:57:29.405Z,100.00
2023-07-19T23:59:56.295Z,100.00
